sensor_id;sensor_type;location;lat;lon;timestamp;pressure;altitude;pressure_sealevel;temperature;humidity
19890;BME280;10107;51.198;6.824;2023-04-22T00:00:31;-21538.84;;;8.35;100.00
19890;BME280;10107;51.198;6.824;2023-04-22T00:04:33;-21540.31;;;8.40;100.00
19890;BME280;10107;51.198;6.824;2023-04-22T00:08:36;-21541.78;;;8.46;100.00
19890;BME280;10107;51.198;6.824;2023-04-22T00:12:38;-21542.44;;;8.48;100.00
19890;BME280;10107;51.198;6.824;2023-04-22T00:16:41;-21543.50;;;8.52;100.00
19890;BME280;10107;51.198;6.824;2023-04-22T00:20:43;-21544.56;;;8.57;100.00
19890;BME280;10107;51.198;6.824;2023-04-22T00:24:45;-21544.81;;;8.58;100.00
19890;BME280;10107;51.198;6.824;2023-04-22T00:28:47;-21544.56;;;8.57;100.00
19890;BME280;10107;51.198;6.824;2023-04-22T00:32:50;-21545.63;;;8.61;100.00
19890;BME280;10107;51.198;6.824;2023-04-22T00:36:52;-21546.41;;;8.64;100.00
19890;BME280;10107;51.198;6.824;2023-04-22T00:40:54;-21547.09;;;8.66;100.00
19890;BME280;10107;51.198;6.824;2023-04-22T00:44:56;-21547.75;;;8.69;100.00
19890;BME280;10107;51.198;6.824;2023-04-22T00:49:00;-21548.28;;;8.71;100.00
19890;BME280;10107;51.198;6.824;2023-04-22T00:53:02;-21548.00;;;8.70;100.00
19890;BME280;10107;51.198;6.824;2023-04-22T00:57:05;-21547.75;;;8.69;100.00
19890;BME280;10107;51.198;6.824;2023-04-22T01:01:08;-21548.16;;;8.70;100.00
19890;BME280;10107;51.198;6.824;2023-04-22T01:05:13;-21548.28;;;8.71;100.00
19890;BME280;10107;51.198;6.824;2023-04-22T01:09:15;-21548.16;;;8.70;100.00
19890;BME280;10107;51.198;6.824;2023-04-22T01:13:16;-21548.00;;;8.70;100.00
19890;BME280;10107;51.198;6.824;2023-04-22T01:17:19;-21548.53;;;8.72;100.00
19890;BME280;10107;51.198;6.824;2023-04-22T01:21:22;-21548.28;;;8.71;100.00
19890;BME280;10107;51.198;6.824;2023-04-22T01:25:26;-21548.41;;;8.71;100.00
19890;BME280;10107;51.198;6.824;2023-04-22T01:29:28;-21548.41;;;8.71;100.00
19890;BME280;10107;51.198;6.824;2023-04-22T01:33:30;-21548.16;;;8.70;100.00
19890;BME280;10107;51.198;6.824;2023-04-22T01:37:33;-21548.53;;;8.72;100.00
19890;BME280;10107;51.198;6.824;2023-04-22T01:41:36;-21548.81;;;8.73;100.00
19890;BME280;10107;51.198;6.824;2023-04-22T01:45:38;-21548.69;;;8.72;100.00
19890;BME280;10107;51.198;6.824;2023-04-22T01:49:40;-21548.94;;;8.74;100.00
19890;BME280;10107;51.198;6.824;2023-04-22T01:53:42;-21549.47;;;8.76;100.00
19890;BME280;10107;51.198;6.824;2023-04-22T01:57:45;-21548.94;;;8.74;100.00
19890;BME280;10107;51.198;6.824;2023-04-22T02:01:47;-21549.59;;;8.76;100.00
19890;BME280;10107;51.198;6.824;2023-04-22T02:05:48;-21549.34;;;8.75;100.00
19890;BME280;10107;51.198;6.824;2023-04-22T02:09:52;-21549.75;;;8.77;100.00
19890;BME280;10107;51.198;6.824;2023-04-22T02:13:55;-21550.00;;;8.78;100.00
19890;BME280;10107;51.198;6.824;2023-04-22T02:17:58;-21550.00;;;8.78;100.00
19890;BME280;10107;51.198;6.824;2023-04-22T02:22:00;-21549.88;;;8.77;100.00
19890;BME280;10107;51.198;6.824;2023-04-22T02:26:02;-21549.75;;;8.77;100.00
19890;BME280;10107;51.198;6.824;2023-04-22T02:30:06;-21550.00;;;8.78;100.00
19890;BME280;10107;51.198;6.824;2023-04-22T02:34:09;-21549.22;;;8.75;100.00
19890;BME280;10107;51.198;6.824;2023-04-22T02:38:10;-21549.59;;;8.76;100.00
19890;BME280;10107;51.198;6.824;2023-04-22T02:42:12;-21549.34;;;8.75;100.00
19890;BME280;10107;51.198;6.824;2023-04-22T02:46:15;-21549.88;;;8.77;100.00
19890;BME280;10107;51.198;6.824;2023-04-22T02:50:17;-21549.88;;;8.77;100.00
19890;BME280;10107;51.198;6.824;2023-04-22T02:54:19;-21549.75;;;8.77;100.00
19890;BME280;10107;51.198;6.824;2023-04-22T02:58:20;-21549.34;;;8.75;100.00
19890;BME280;10107;51.198;6.824;2023-04-22T03:02:24;-21548.81;;;8.73;100.00
19890;BME280;10107;51.198;6.824;2023-04-22T03:06:37;-21548.81;;;8.73;100.00
19890;BME280;10107;51.198;6.824;2023-04-22T03:10:39;-21548.41;;;8.71;100.00
19890;BME280;10107;51.198;6.824;2023-04-22T03:14:41;-21548.28;;;8.71;100.00
19890;BME280;10107;51.198;6.824;2023-04-22T03:18:44;-21548.00;;;8.70;100.00
19890;BME280;10107;51.198;6.824;2023-04-22T03:22:46;-21548.00;;;8.70;100.00
19890;BME280;10107;51.198;6.824;2023-04-22T03:26:49;-21548.69;;;8.72;100.00
19890;BME280;10107;51.198;6.824;2023-04-22T03:30:52;-21548.00;;;8.70;100.00
19890;BME280;10107;51.198;6.824;2023-04-22T03:34:56;-21547.63;;;8.68;100.00
19890;BME280;10107;51.198;6.824;2023-04-22T03:38:58;-21546.81;;;8.65;100.00
19890;BME280;10107;51.198;6.824;2023-04-22T03:43:01;-21546.03;;;8.62;100.00
19890;BME280;10107;51.198;6.824;2023-04-22T03:47:04;-21546.03;;;8.62;100.00
19890;BME280;10107;51.198;6.824;2023-04-22T03:51:13;-21546.16;;;8.63;100.00
19890;BME280;10107;51.198;6.824;2023-04-22T03:55:17;-21547.22;;;8.67;100.00
19890;BME280;10107;51.198;6.824;2023-04-22T03:59:20;-21548.69;;;8.72;100.00
19890;BME280;10107;51.198;6.824;2023-04-22T04:03:23;-21550.41;;;8.79;100.00
19890;BME280;10107;51.198;6.824;2023-04-22T04:07:27;-21551.59;;;8.84;100.00
19890;BME280;10107;51.198;6.824;2023-04-22T04:11:29;-21553.06;;;8.89;100.00
19890;BME280;10107;51.198;6.824;2023-04-22T04:15:33;-21553.31;;;8.90;100.00
19890;BME280;10107;51.198;6.824;2023-04-22T04:19:37;-21554.38;;;8.95;100.00
19890;BME280;10107;51.198;6.824;2023-04-22T04:23:40;-21554.66;;;8.96;100.00
19890;BME280;10107;51.198;6.824;2023-04-22T04:27:42;-21555.31;;;8.98;100.00
19890;BME280;10107;51.198;6.824;2023-04-22T04:31:46;-21555.97;;;9.01;100.00
19890;BME280;10107;51.198;6.824;2023-04-22T04:35:48;-21556.50;;;9.03;100.00
19890;BME280;10107;51.198;6.824;2023-04-22T04:39:56;-21556.66;;;9.03;100.00
19890;BME280;10107;51.198;6.824;2023-04-22T04:44:07;-21557.03;;;9.05;100.00
19890;BME280;10107;51.198;6.824;2023-04-22T04:48:11;-21557.72;;;9.07;100.00
19890;BME280;10107;51.198;6.824;2023-04-22T04:52:16;-21558.91;;;9.12;100.00
19890;BME280;10107;51.198;6.824;2023-04-22T04:56:19;-21559.97;;;9.16;100.00
19890;BME280;10107;51.198;6.824;2023-04-22T05:00:22;-21561.44;;;9.22;100.00
19890;BME280;10107;51.198;6.824;2023-04-22T05:04:23;-21564.22;;;9.32;100.00
19890;BME280;10107;51.198;6.824;2023-04-22T05:08:25;-21567.53;;;9.45;100.00
19890;BME280;10107;51.198;6.824;2023-04-22T05:12:34;-21570.97;;;9.59;100.00
19890;BME280;10107;51.198;6.824;2023-04-22T05:16:38;-21575.34;;;9.76;100.00
19890;BME280;10107;51.198;6.824;2023-04-22T05:20:41;-21580.78;;;9.97;100.00
19890;BME280;10107;51.198;6.824;2023-04-22T05:24:43;-21586.63;;;10.19;100.00
19890;BME280;10107;51.198;6.824;2023-04-22T05:28:46;-21591.94;;;10.40;100.00
19890;BME280;10107;51.198;6.824;2023-04-22T05:32:50;-21598.44;;;10.65;100.00
19890;BME280;10107;51.198;6.824;2023-04-22T05:36:51;-21604.50;;;10.88;100.00
19890;BME280;10107;51.198;6.824;2023-04-22T05:40:54;-21608.34;;;11.03;100.00
19890;BME280;10107;51.198;6.824;2023-04-22T05:44:57;-21612.59;;;11.20;100.00
19890;BME280;10107;51.198;6.824;2023-04-22T05:48:59;-21617.75;;;11.40;100.00
19890;BME280;10107;51.198;6.824;2023-04-22T05:53:20;-21625.03;;;11.68;100.00
19890;BME280;10107;51.198;6.824;2023-04-22T05:57:21;-21632.44;;;11.97;100.00
19890;BME280;10107;51.198;6.824;2023-04-22T06:01:25;-21646.81;;;12.53;100.00
19890;BME280;10107;51.198;6.824;2023-04-22T06:05:36;-21662.94;;;13.15;100.00
19890;BME280;10107;51.198;6.824;2023-04-22T06:09:38;-21657.78;;;12.95;100.00
19890;BME280;10107;51.198;6.824;2023-04-22T06:13:41;-21657.53;;;12.94;100.00
19890;BME280;10107;51.198;6.824;2023-04-22T06:17:44;-21660.28;;;13.05;100.00
19890;BME280;10107;51.198;6.824;2023-04-22T06:21:46;-21665.84;;;13.26;100.00
19890;BME280;10107;51.198;6.824;2023-04-22T06:25:50;-21672.81;;;13.54;100.00
19890;BME280;10107;51.198;6.824;2023-04-22T06:29:51;-21726.91;;;15.64;99.58
19890;BME280;10107;51.198;6.824;2023-04-22T06:33:55;-21796.13;;;18.35;85.26
19890;BME280;10107;51.198;6.824;2023-04-22T06:37:57;-21878.78;;;21.61;65.33
19890;BME280;10107;51.198;6.824;2023-04-22T06:42:05;-21939.50;;;24.01;55.82
19890;BME280;10107;51.198;6.824;2023-04-22T06:46:29;-21982.78;;;25.73;48.21
19890;BME280;10107;51.198;6.824;2023-04-22T06:50:55;-22035.16;;;27.81;40.14
19890;BME280;10107;51.198;6.824;2023-04-22T06:54:57;-22058.00;;;28.73;36.29
19890;BME280;10107;51.198;6.824;2023-04-22T06:58:59;-22074.94;;;29.40;34.27
19890;BME280;10107;51.198;6.824;2023-04-22T07:03:01;-22063.53;;;28.95;34.27
19890;BME280;10107;51.198;6.824;2023-04-22T07:07:05;-22087.22;;;29.90;32.25
19890;BME280;10107;51.198;6.824;2023-04-22T07:11:07;-22090.91;;;30.05;31.86
19890;BME280;10107;51.198;6.824;2023-04-22T07:15:27;-21943.63;;;24.17;41.67
19890;BME280;10107;51.198;6.824;2023-04-22T07:19:29;-21860.56;;;20.89;50.85
19890;BME280;10107;51.198;6.824;2023-04-22T07:23:32;-21832.16;;;19.77;56.23
19890;BME280;10107;51.198;6.824;2023-04-22T07:27:36;-21933.28;;;23.76;46.78
19890;BME280;10107;51.198;6.824;2023-04-22T07:31:38;-21998.50;;;26.35;40.27
19890;BME280;10107;51.198;6.824;2023-04-22T07:35:40;-22016.00;;;27.05;37.96
19890;BME280;10107;51.198;6.824;2023-04-22T07:39:43;-22022.81;;;27.32;37.30
19890;BME280;10107;51.198;6.824;2023-04-22T07:43:45;-22036.56;;;27.87;34.54
19890;BME280;10107;51.198;6.824;2023-04-22T07:47:46;-22059.94;;;28.80;32.77
19890;BME280;10107;51.198;6.824;2023-04-22T07:51:48;-22085.41;;;29.83;31.67
19890;BME280;10107;51.198;6.824;2023-04-22T07:55:51;-22117.38;;;31.11;29.36
19890;BME280;10107;51.198;6.824;2023-04-22T07:59:53;-22106.50;;;30.67;29.13
19890;BME280;10107;51.198;6.824;2023-04-22T08:03:55;-22125.53;;;31.44;27.89
19890;BME280;10107;51.198;6.824;2023-04-22T08:07:57;-22068.66;;;29.15;30.98
19890;BME280;10107;51.198;6.824;2023-04-22T08:11:59;-22025.00;;;27.41;33.11
19890;BME280;10107;51.198;6.824;2023-04-22T08:16:02;-22008.03;;;26.73;35.29
19890;BME280;10107;51.198;6.824;2023-04-22T08:20:05;-21982.13;;;25.70;37.29
19890;BME280;10107;51.198;6.824;2023-04-22T08:24:07;-21998.38;;;26.35;35.96
19890;BME280;10107;51.198;6.824;2023-04-22T08:28:10;-22001.59;;;26.47;36.13
19890;BME280;10107;51.198;6.824;2023-04-22T08:32:12;-21990.78;;;26.04;36.69
19890;BME280;10107;51.198;6.824;2023-04-22T08:36:15;-22002.75;;;26.52;36.00
19890;BME280;10107;51.198;6.824;2023-04-22T08:40:17;-21985.88;;;25.85;36.77
19890;BME280;10107;51.198;6.824;2023-04-22T08:44:21;-21947.13;;;24.31;39.32
19890;BME280;10107;51.198;6.824;2023-04-22T08:48:23;-21938.31;;;23.96;41.15
19890;BME280;10107;51.198;6.824;2023-04-22T08:52:26;-21968.06;;;25.14;39.53
19890;BME280;10107;51.198;6.824;2023-04-22T08:56:29;-22012.78;;;26.92;35.72
19890;BME280;10107;51.198;6.824;2023-04-22T09:00:33;-22039.16;;;27.97;34.65
19890;BME280;10107;51.198;6.824;2023-04-22T09:04:36;-22069.94;;;29.20;31.44
19890;BME280;10107;51.198;6.824;2023-04-22T09:08:38;-22042.34;;;28.10;32.98
19890;BME280;10107;51.198;6.824;2023-04-22T09:12:40;-22056.22;;;28.66;32.04
19890;BME280;10107;51.198;6.824;2023-04-22T09:16:47;-22083.63;;;29.75;30.08
19890;BME280;10107;51.198;6.824;2023-04-22T09:20:54;-22067.09;;;29.09;31.50
19890;BME280;10107;51.198;6.824;2023-04-22T09:24:56;-22071.72;;;29.28;30.14
19890;BME280;10107;51.198;6.824;2023-04-22T09:28:58;-22085.56;;;29.83;30.09
19890;BME280;10107;51.198;6.824;2023-04-22T09:33:03;-22069.81;;;29.20;30.57
19890;BME280;10107;51.198;6.824;2023-04-22T09:37:05;-22050.06;;;28.41;31.19
19890;BME280;10107;51.198;6.824;2023-04-22T09:41:08;-22058.66;;;28.75;31.90
19890;BME280;10107;51.198;6.824;2023-04-22T09:45:11;-22041.72;;;28.08;32.28
19890;BME280;10107;51.198;6.824;2023-04-22T09:49:15;-22064.16;;;28.97;31.19
19890;BME280;10107;51.198;6.824;2023-04-22T09:53:18;-22067.22;;;29.10;31.04
19890;BME280;10107;51.198;6.824;2023-04-22T09:57:22;-22079.41;;;29.58;30.66
19890;BME280;10107;51.198;6.824;2023-04-22T10:01:34;-22083.88;;;29.76;30.47
19890;BME280;10107;51.198;6.824;2023-04-22T10:05:37;-22076.59;;;29.47;30.97
19890;BME280;10107;51.198;6.824;2023-04-22T10:09:41;-22063.91;;;28.96;31.82
19890;BME280;10107;51.198;6.824;2023-04-22T10:13:43;-22073.78;;;29.36;30.96
19890;BME280;10107;51.198;6.824;2023-04-22T10:17:45;-22091.31;;;30.06;29.37
19890;BME280;10107;51.198;6.824;2023-04-22T10:21:51;-22084.03;;;29.77;31.64
19890;BME280;10107;51.198;6.824;2023-04-22T10:25:54;-22070.97;;;29.25;31.61
19890;BME280;10107;51.198;6.824;2023-04-22T10:29:58;-22079.03;;;29.57;30.41
19890;BME280;10107;51.198;6.824;2023-04-22T10:34:08;-22081.97;;;29.69;31.62
19890;BME280;10107;51.198;6.824;2023-04-22T10:38:13;-22079.16;;;29.57;30.97
19890;BME280;10107;51.198;6.824;2023-04-22T10:42:14;-22045.44;;;28.22;32.06
19890;BME280;10107;51.198;6.824;2023-04-22T10:46:54;-22016.13;;;27.05;34.25
19890;BME280;10107;51.198;6.824;2023-04-22T10:50:56;-22036.19;;;27.85;33.47
19890;BME280;10107;51.198;6.824;2023-04-22T10:54:59;-22065.31;;;29.02;31.91
19890;BME280;10107;51.198;6.824;2023-04-22T10:59:14;-22073.00;;;29.33;31.11
19890;BME280;10107;51.198;6.824;2023-04-22T11:03:16;-22080.44;;;29.62;31.03
19890;BME280;10107;51.198;6.824;2023-04-22T11:07:29;-22091.81;;;30.08;30.05
19890;BME280;10107;51.198;6.824;2023-04-22T11:11:33;-22067.09;;;29.09;31.39
19890;BME280;10107;51.198;6.824;2023-04-22T11:15:36;-22081.72;;;29.68;30.27
19890;BME280;10107;51.198;6.824;2023-04-22T11:19:38;-22084.91;;;29.80;30.33
19890;BME280;10107;51.198;6.824;2023-04-22T11:23:48;-22047.50;;;28.31;32.08
19890;BME280;10107;51.198;6.824;2023-04-22T11:27:53;-22005.06;;;26.61;34.71
19890;BME280;10107;51.198;6.824;2023-04-22T11:31:55;-21997.59;;;26.32;36.21
19890;BME280;10107;51.198;6.824;2023-04-22T11:35:57;-21983.03;;;25.74;37.41
19890;BME280;10107;51.198;6.824;2023-04-22T11:39:59;-21966.25;;;25.07;37.97
19890;BME280;10107;51.198;6.824;2023-04-22T11:44:04;-21982.78;;;25.73;37.91
19890;BME280;10107;51.198;6.824;2023-04-22T11:48:08;-21978.78;;;25.57;37.71
19890;BME280;10107;51.198;6.824;2023-04-22T11:52:10;-21959.16;;;24.79;38.95
19890;BME280;10107;51.198;6.824;2023-04-22T11:56:12;-21960.94;;;24.86;40.03
19890;BME280;10107;51.198;6.824;2023-04-22T12:00:15;-21965.47;;;25.04;39.42
19890;BME280;10107;51.198;6.824;2023-04-22T12:04:20;-21967.94;;;25.14;39.33
19890;BME280;10107;51.198;6.824;2023-04-22T12:08:22;-21952.94;;;24.54;41.37
19890;BME280;10107;51.198;6.824;2023-04-22T12:12:25;-21964.31;;;24.99;39.82
19890;BME280;10107;51.198;6.824;2023-04-22T12:16:38;-21969.34;;;25.19;39.17
19890;BME280;10107;51.198;6.824;2023-04-22T12:20:41;-21985.59;;;25.84;38.24
19890;BME280;10107;51.198;6.824;2023-04-22T12:24:43;-21996.44;;;26.27;38.73
19890;BME280;10107;51.198;6.824;2023-04-22T12:28:46;-22019.22;;;27.18;36.69
19890;BME280;10107;51.198;6.824;2023-04-22T12:32:51;-22012.53;;;26.91;36.65
19890;BME280;10107;51.198;6.824;2023-04-22T12:36:53;-21995.03;;;26.21;37.84
19890;BME280;10107;51.198;6.824;2023-04-22T12:40:56;-21999.28;;;26.38;37.82
19890;BME280;10107;51.198;6.824;2023-04-22T12:44:58;-21999.66;;;26.40;37.31
19890;BME280;10107;51.198;6.824;2023-04-22T12:49:01;-21967.94;;;25.14;40.26
19890;BME280;10107;51.198;6.824;2023-04-22T12:53:03;-21958.75;;;24.77;41.75
19890;BME280;10107;51.198;6.824;2023-04-22T12:57:04;-21954.63;;;24.61;41.86
19890;BME280;10107;51.198;6.824;2023-04-22T13:01:06;-21946.22;;;24.27;43.57
19890;BME280;10107;51.198;6.824;2023-04-22T13:05:09;-21926.94;;;23.51;44.81
19890;BME280;10107;51.198;6.824;2023-04-22T13:09:12;-21898.66;;;22.39;47.13
19890;BME280;10107;51.198;6.824;2023-04-22T13:13:13;-21894.75;;;22.24;48.92
19890;BME280;10107;51.198;6.824;2023-04-22T13:17:15;-21894.75;;;22.24;49.36
19890;BME280;10107;51.198;6.824;2023-04-22T13:21:18;-21887.09;;;21.93;51.65
19890;BME280;10107;51.198;6.824;2023-04-22T13:25:20;-21881.13;;;21.70;55.64
19890;BME280;10107;51.198;6.824;2023-04-22T13:29:22;-21864.22;;;21.03;63.00
19890;BME280;10107;51.198;6.824;2023-04-22T13:33:24;-21848.06;;;20.40;68.53
19890;BME280;10107;51.198;6.824;2023-04-22T13:37:26;-21842.59;;;20.18;71.33
19890;BME280;10107;51.198;6.824;2023-04-22T13:41:28;-21834.78;;;19.87;70.16
19890;BME280;10107;51.198;6.824;2023-04-22T13:45:30;-21825.63;;;19.51;71.54
19890;BME280;10107;51.198;6.824;2023-04-22T13:49:32;-21818.84;;;19.25;74.38
19890;BME280;10107;51.198;6.824;2023-04-22T13:53:35;-21817.81;;;19.21;74.55
19890;BME280;10107;51.198;6.824;2023-04-22T13:57:38;-21817.28;;;19.18;77.46
19890;BME280;10107;51.198;6.824;2023-04-22T14:01:41;-21813.50;;;19.04;75.55
19890;BME280;10107;51.198;6.824;2023-04-22T14:05:43;-21812.06;;;18.98;74.90
19890;BME280;10107;51.198;6.824;2023-04-22T14:09:46;-21812.59;;;19.00;74.82
19890;BME280;10107;51.198;6.824;2023-04-22T14:13:48;-21814.53;;;19.08;74.44
19890;BME280;10107;51.198;6.824;2023-04-22T14:17:50;-21814.94;;;19.09;74.11
19890;BME280;10107;51.198;6.824;2023-04-22T14:21:51;-21815.84;;;19.13;75.49
19890;BME280;10107;51.198;6.824;2023-04-22T14:25:54;-21816.63;;;19.16;76.51
19890;BME280;10107;51.198;6.824;2023-04-22T14:29:56;-21814.03;;;19.06;76.18
19890;BME280;10107;51.198;6.824;2023-04-22T14:33:58;-21810.63;;;18.92;75.05
19890;BME280;10107;51.198;6.824;2023-04-22T14:37:59;-21807.38;;;18.79;74.07
19890;BME280;10107;51.198;6.824;2023-04-22T14:42:03;-21806.72;;;18.77;73.91
19890;BME280;10107;51.198;6.824;2023-04-22T14:46:05;-21803.56;;;18.65;71.13
19890;BME280;10107;51.198;6.824;2023-04-22T14:50:07;-21803.44;;;18.64;76.45
19890;BME280;10107;51.198;6.824;2023-04-22T14:54:09;-21800.69;;;18.53;81.38
19890;BME280;10107;51.198;6.824;2023-04-22T14:58:12;-21801.34;;;18.56;84.95
19890;BME280;10107;51.198;6.824;2023-04-22T15:02:14;-21803.69;;;18.65;82.64
19890;BME280;10107;51.198;6.824;2023-04-22T15:06:16;-21798.34;;;18.44;79.56
19890;BME280;10107;51.198;6.824;2023-04-22T15:10:18;-21796.78;;;18.38;82.34
19890;BME280;10107;51.198;6.824;2023-04-22T15:14:21;-21792.47;;;18.21;80.82
19890;BME280;10107;51.198;6.824;2023-04-22T15:18:25;-21789.44;;;18.09;81.53
19890;BME280;10107;51.198;6.824;2023-04-22T15:22:27;-21787.22;;;18.00;81.02
19890;BME280;10107;51.198;6.824;2023-04-22T15:26:29;-21788.00;;;18.04;82.87
19890;BME280;10107;51.198;6.824;2023-04-22T15:30:34;-21782.66;;;17.83;83.51
19890;BME280;10107;51.198;6.824;2023-04-22T15:34:38;-21776.88;;;17.60;83.59
19890;BME280;10107;51.198;6.824;2023-04-22T15:38:39;-21774.53;;;17.51;84.19
19890;BME280;10107;51.198;6.824;2023-04-22T15:42:41;-21772.31;;;17.42;85.68
19890;BME280;10107;51.198;6.824;2023-04-22T15:46:44;-21770.34;;;17.34;84.71
19890;BME280;10107;51.198;6.824;2023-04-22T15:50:46;-21767.59;;;17.24;87.49
19890;BME280;10107;51.198;6.824;2023-04-22T15:54:47;-21764.84;;;17.13;89.31
19890;BME280;10107;51.198;6.824;2023-04-22T15:58:49;-21761.81;;;17.01;91.56
19890;BME280;10107;51.198;6.824;2023-04-22T16:02:53;-21758.41;;;16.88;94.27
19890;BME280;10107;51.198;6.824;2023-04-22T16:06:55;-21753.44;;;16.68;97.75
19890;BME280;10107;51.198;6.824;2023-04-22T16:10:58;-21749.50;;;16.53;100.00
19890;BME280;10107;51.198;6.824;2023-04-22T16:15:00;-21747.78;;;16.46;100.00
19890;BME280;10107;51.198;6.824;2023-04-22T16:19:03;-21744.50;;;16.33;100.00
19890;BME280;10107;51.198;6.824;2023-04-22T16:23:05;-21742.81;;;16.27;100.00
19890;BME280;10107;51.198;6.824;2023-04-22T16:27:08;-21741.22;;;16.20;100.00
19890;BME280;10107;51.198;6.824;2023-04-22T16:31:10;-21739.66;;;16.14;100.00
19890;BME280;10107;51.198;6.824;2023-04-22T16:35:13;-21739.25;;;16.13;100.00
19890;BME280;10107;51.198;6.824;2023-04-22T16:39:17;-21737.69;;;16.07;100.00
19890;BME280;10107;51.198;6.824;2023-04-22T16:43:19;-21735.72;;;15.99;100.00
19890;BME280;10107;51.198;6.824;2023-04-22T16:47:21;-21733.75;;;15.91;100.00
19890;BME280;10107;51.198;6.824;2023-04-22T16:51:24;-21731.13;;;15.81;100.00
19890;BME280;10107;51.198;6.824;2023-04-22T16:55:26;-21727.56;;;15.67;100.00
19890;BME280;10107;51.198;6.824;2023-04-22T16:59:27;-21726.25;;;15.62;100.00
19890;BME280;10107;51.198;6.824;2023-04-22T17:03:29;-21725.47;;;15.59;100.00
19890;BME280;10107;51.198;6.824;2023-04-22T17:07:32;-21724.16;;;15.54;100.00
19890;BME280;10107;51.198;6.824;2023-04-22T17:11:34;-21722.97;;;15.49;100.00
19890;BME280;10107;51.198;6.824;2023-04-22T17:15:37;-21722.56;;;15.48;100.00
19890;BME280;10107;51.198;6.824;2023-04-22T17:19:38;-21721.53;;;15.43;100.00
19890;BME280;10107;51.198;6.824;2023-04-22T17:23:43;-21718.75;;;15.33;100.00
19890;BME280;10107;51.198;6.824;2023-04-22T17:27:45;-21717.84;;;15.29;100.00
19890;BME280;10107;51.198;6.824;2023-04-22T17:31:46;-21716.78;;;15.25;100.00
19890;BME280;10107;51.198;6.824;2023-04-22T17:35:50;-21716.28;;;15.23;100.00
19890;BME280;10107;51.198;6.824;2023-04-22T17:39:53;-21716.41;;;15.23;100.00
19890;BME280;10107;51.198;6.824;2023-04-22T17:43:56;-21716.41;;;15.23;100.00
19890;BME280;10107;51.198;6.824;2023-04-22T17:47:58;-21714.56;;;15.16;100.00
19890;BME280;10107;51.198;6.824;2023-04-22T17:52:00;-21712.06;;;15.07;100.00
19890;BME280;10107;51.198;6.824;2023-04-22T17:56:03;-21711.53;;;15.04;100.00
19890;BME280;10107;51.198;6.824;2023-04-22T18:00:08;-21710.75;;;15.01;100.00
19890;BME280;10107;51.198;6.824;2023-04-22T18:04:13;-21708.66;;;14.93;100.00
19890;BME280;10107;51.198;6.824;2023-04-22T18:08:15;-21706.81;;;14.86;100.00
19890;BME280;10107;51.198;6.824;2023-04-22T18:12:18;-21704.69;;;14.78;100.00
19890;BME280;10107;51.198;6.824;2023-04-22T18:16:23;-21702.31;;;14.69;100.00
19890;BME280;10107;51.198;6.824;2023-04-22T18:20:25;-21699.97;;;14.59;100.00
19890;BME280;10107;51.198;6.824;2023-04-22T18:24:27;-21698.91;;;14.55;100.00
19890;BME280;10107;51.198;6.824;2023-04-22T18:28:30;-21699.44;;;14.57;100.00
19890;BME280;10107;51.198;6.824;2023-04-22T18:32:31;-21699.97;;;14.59;100.00
19890;BME280;10107;51.198;6.824;2023-04-22T18:36:33;-21697.44;;;14.50;100.00
19890;BME280;10107;51.198;6.824;2023-04-22T18:40:36;-21695.75;;;14.43;100.00
19890;BME280;10107;51.198;6.824;2023-04-22T18:44:39;-21693.38;;;14.34;100.00
19890;BME280;10107;51.198;6.824;2023-04-22T18:48:41;-21693.25;;;14.33;100.00
19890;BME280;10107;51.198;6.824;2023-04-22T18:52:44;-21692.59;;;14.31;100.00
19890;BME280;10107;51.198;6.824;2023-04-22T18:56:46;-21692.06;;;14.29;100.00
19890;BME280;10107;51.198;6.824;2023-04-22T19:00:50;-21692.84;;;14.32;100.00
19890;BME280;10107;51.198;6.824;2023-04-22T19:04:52;-21692.72;;;14.31;100.00
19890;BME280;10107;51.198;6.824;2023-04-22T19:08:54;-21691.53;;;14.26;100.00
19890;BME280;10107;51.198;6.824;2023-04-22T19:12:56;-21691.13;;;14.25;100.00
19890;BME280;10107;51.198;6.824;2023-04-22T19:17:00;-21691.53;;;14.26;100.00
19890;BME280;10107;51.198;6.824;2023-04-22T19:21:02;-21685.88;;;14.04;100.00
19890;BME280;10107;51.198;6.824;2023-04-22T19:25:06;-21679.53;;;13.80;100.00
19890;BME280;10107;51.198;6.824;2023-04-22T19:29:08;-21675.84;;;13.65;100.00
19890;BME280;10107;51.198;6.824;2023-04-22T19:33:16;-21674.28;;;13.59;100.00
19890;BME280;10107;51.198;6.824;2023-04-22T19:37:18;-21672.81;;;13.54;100.00
19890;BME280;10107;51.198;6.824;2023-04-22T19:41:24;-21669.00;;;13.39;100.00
19890;BME280;10107;51.198;6.824;2023-04-22T19:45:26;-21666.75;;;13.30;100.00
19890;BME280;10107;51.198;6.824;2023-04-22T19:49:31;-21665.31;;;13.24;100.00
19890;BME280;10107;51.198;6.824;2023-04-22T19:53:33;-21663.19;;;13.16;100.00
19890;BME280;10107;51.198;6.824;2023-04-22T19:57:36;-21661.88;;;13.11;100.00
19890;BME280;10107;51.198;6.824;2023-04-22T20:01:41;-21661.22;;;13.08;100.00
19890;BME280;10107;51.198;6.824;2023-04-22T20:05:47;-21659.91;;;13.03;100.00
19890;BME280;10107;51.198;6.824;2023-04-22T20:09:50;-21660.16;;;13.04;100.00
19890;BME280;10107;51.198;6.824;2023-04-22T20:13:52;-21658.44;;;12.98;100.00
19890;BME280;10107;51.198;6.824;2023-04-22T20:17:55;-21657.66;;;12.95;100.00
19890;BME280;10107;51.198;6.824;2023-04-22T20:21:59;-21656.84;;;12.92;100.00
19890;BME280;10107;51.198;6.824;2023-04-22T20:26:01;-21655.53;;;12.86;100.00
19890;BME280;10107;51.198;6.824;2023-04-22T20:30:04;-21655.00;;;12.84;100.00
19890;BME280;10107;51.198;6.824;2023-04-22T20:34:07;-21654.34;;;12.82;100.00
19890;BME280;10107;51.198;6.824;2023-04-22T20:38:10;-21653.56;;;12.79;100.00
19890;BME280;10107;51.198;6.824;2023-04-22T20:42:14;-21652.25;;;12.74;100.00
19890;BME280;10107;51.198;6.824;2023-04-22T20:46:16;-21649.47;;;12.63;100.00
19890;BME280;10107;51.198;6.824;2023-04-22T20:50:18;-21649.34;;;12.62;100.00
19890;BME280;10107;51.198;6.824;2023-04-22T20:54:22;-21648.28;;;12.58;100.00
19890;BME280;10107;51.198;6.824;2023-04-22T20:58:24;-21646.16;;;12.50;100.00
19890;BME280;10107;51.198;6.824;2023-04-22T21:02:27;-21642.59;;;12.36;100.00
19890;BME280;10107;51.198;6.824;2023-04-22T21:06:29;-21638.63;;;12.21;100.00